Washta, Iowa
Current Conditions -  °F | °C
As of 2:15 AM on Monday 26 Jan 2015 (Local Time) from KCKP Reporting Station
Clear Clear  
Wind Chill: 22°   Ceiling: Unl
Heat Index: 30°   Visibility: 7mi
Dew Point: 30°   Wind: 8mph
Humidity: 100%   Direction: 190°S
Pressure: 29.93"   Gusts: NA
Location:  42.58°N, 95.72°W
Report Text: KCKP 260815Z AUTO 19007KT 7SM CLR M01/M01 A2993 RMK AO2 T10111011
Loading
Personal Weather Stations






























Interactive Weather Map New forecast layout! Learn more

10-Day Weather Forecast

Advertisements
Track Severe Weather on mobile